createdAt,value
2018-04-07T00:00:05.389Z,70.00
2018-04-07T00:02:32.291Z,70.80
2018-04-07T00:04:59.240Z,70.90
2018-04-07T00:07:25.435Z,70.10
2018-04-07T00:09:51.701Z,69.80
2018-04-07T00:12:17.828Z,70.00
2018-04-07T00:14:44.040Z,70.20
2018-04-07T00:17:10.210Z,69.90
2018-04-07T00:19:36.397Z,69.90
2018-04-07T00:22:02.576Z,70.20
2018-04-07T00:24:28.727Z,70.60
2018-04-07T00:26:54.948Z,71.10
2018-04-07T00:29:21.136Z,71.80
2018-04-07T00:31:47.401Z,71.10
2018-04-07T00:34:13.540Z,70.60
2018-04-07T00:36:39.716Z,70.80
2018-04-07T00:39:06.595Z,71.60
2018-04-07T00:41:32.755Z,70.60
2018-04-07T00:43:58.948Z,70.70
2018-04-07T00:46:25.108Z,70.50
2018-04-07T00:48:51.312Z,70.90
2018-04-07T00:51:18.227Z,71.20
2018-04-07T00:53:44.472Z,70.50
2018-04-07T00:56:11.403Z,71.60
2018-04-07T00:58:38.367Z,71.80
2018-04-07T01:01:04.624Z,71.00
2018-04-07T01:03:31.535Z,72.50
2018-04-07T01:05:57.704Z,71.00
2018-04-07T01:08:23.936Z,69.10
2018-04-07T01:10:50.857Z,69.90
2018-04-07T01:13:17.032Z,68.90
2018-04-07T01:15:44.099Z,70.20
2018-04-07T01:18:10.287Z,69.40
2018-04-07T01:20:36.448Z,69.30
2018-04-07T01:23:02.821Z,69.30
2018-04-07T01:25:28.996Z,69.00
2018-04-07T01:27:55.444Z,68.80
2018-04-07T01:30:21.591Z,68.70
2018-04-07T01:32:48.483Z,69.70
2018-04-07T01:35:14.700Z,68.90
2018-04-07T01:37:40.916Z,68.40
2018-04-07T01:40:07.115Z,68.10
2018-04-07T01:42:33.307Z,68.50
2018-04-07T01:44:59.463Z,68.10
2018-04-07T01:47:25.649Z,68.50
2018-04-07T01:49:52.031Z,68.20
2018-04-07T01:52:18.260Z,68.80
2018-04-07T01:54:44.440Z,68.60
2018-04-07T01:57:10.657Z,68.70
2018-04-07T01:59:37.575Z,69.20
2018-04-07T02:02:03.950Z,68.40
2018-04-07T02:04:30.173Z,68.50
2018-04-07T02:06:56.311Z,68.40
2018-04-07T02:09:22.511Z,68.20
2018-04-07T02:11:48.656Z,68.50
2018-04-07T02:14:15.629Z,68.90
2018-04-07T02:16:41.780Z,68.10
2018-04-07T02:19:08.683Z,69.60
2018-04-07T02:21:34.847Z,68.70
2018-04-07T02:24:01.776Z,69.10
2018-04-07T02:26:27.990Z,68.30
2018-04-07T02:28:54.507Z,68.60
2018-04-07T02:31:20.684Z,69.00
2018-04-07T02:33:47.631Z,69.90
2018-04-07T02:36:13.802Z,69.00
2018-04-07T02:38:40.008Z,69.20
2018-04-07T02:41:06.185Z,68.70
2018-04-07T02:43:32.349Z,68.80
2018-04-07T02:45:58.521Z,69.00
2018-04-07T02:48:24.671Z,69.50
2018-04-07T02:50:50.856Z,69.30
2018-04-07T02:53:17.081Z,69.00
2018-04-07T02:55:43.256Z,69.20
2018-04-07T02:58:10.214Z,70.70
2018-04-07T03:00:37.146Z,71.80
2018-04-07T03:03:03.486Z,70.10
2018-04-07T03:05:30.404Z,70.50
2018-04-07T03:07:56.575Z,70.10
2018-04-07T03:10:23.479Z,71.00
2018-04-07T03:12:49.687Z,70.20
2018-04-07T03:15:16.583Z,71.60
2018-04-07T03:17:42.731Z,71.30
2018-04-07T03:20:08.951Z,71.00
2018-04-07T03:22:35.123Z,70.90
2018-04-07T03:25:01.293Z,70.80
2018-04-07T03:27:27.493Z,70.80
2018-04-07T03:29:54.043Z,71.00
2018-04-07T03:32:20.953Z,71.90
2018-04-07T03:34:47.180Z,71.10
2018-04-07T03:37:13.360Z,71.10
2018-04-07T03:39:39.904Z,71.00
2018-04-07T03:42:06.063Z,71.30
2018-04-07T03:44:32.224Z,71.60
2018-04-07T03:46:58.411Z,71.70
2018-04-07T03:49:24.624Z,71.60
2018-04-07T03:51:50.821Z,71.80
2018-04-07T03:54:16.984Z,71.60
2018-04-07T03:56:43.911Z,72.80
2018-04-07T03:59:10.065Z,72.60
2018-04-07T04:01:36.236Z,72.40
2018-04-07T04:04:02.448Z,71.80
2018-04-07T04:06:29.407Z,72.60
2018-04-07T04:08:56.326Z,73.10
2018-04-07T04:11:22.524Z,72.30
2018-04-07T04:13:48.734Z,72.50
2018-04-07T04:16:15.668Z,73.50
2018-04-07T04:18:41.929Z,72.70
2018-04-07T04:21:08.122Z,73.00
2018-04-07T04:23:35.024Z,74.30
2018-04-07T04:26:01.188Z,73.50
2018-04-07T04:28:27.371Z,73.70
2018-04-07T04:30:53.852Z,73.90
2018-04-07T04:33:20.019Z,74.30
2018-04-07T04:35:46.962Z,74.60
2018-04-07T04:38:13.918Z,74.90
2018-04-07T04:40:40.870Z,75.10
2018-04-07T04:43:07.979Z,75.40
2018-04-07T04:45:34.147Z,75.80
2018-04-07T04:48:00.312Z,74.80
2018-04-07T04:50:26.487Z,75.10
2018-04-07T04:52:52.648Z,75.30
2018-04-07T04:55:18.837Z,76.40
2018-04-07T04:57:45.034Z,74.20
2018-04-07T05:00:11.984Z,73.60
2018-04-07T05:02:38.871Z,73.80
2018-04-07T05:05:05.223Z,72.80
2018-04-07T05:07:31.399Z,72.70
2018-04-07T05:09:58.334Z,74.30
2018-04-07T05:12:24.521Z,73.40
2018-04-07T05:14:50.724Z,72.90
2018-04-07T05:17:17.625Z,73.80
2018-04-07T05:19:43.818Z,72.90
2018-04-07T05:22:09.984Z,72.70
2018-04-07T05:24:36.176Z,72.80
2018-04-07T05:27:02.377Z,72.60
2018-04-07T05:29:29.300Z,72.30
2018-04-07T05:31:55.491Z,72.00
2018-04-07T05:36:42.906Z,72.80
2018-04-07T05:39:09.075Z,72.10
2018-04-07T05:41:35.360Z,72.00
2018-04-07T05:44:01.556Z,72.40
2018-04-07T05:46:27.752Z,72.40
2018-04-07T05:48:53.981Z,72.60
2018-04-07T05:51:21.220Z,72.50
2018-04-07T05:53:47.395Z,71.60
2018-04-07T05:56:14.307Z,73.10
2018-04-07T05:58:40.468Z,71.40
2018-04-07T06:01:06.624Z,71.20
2018-04-07T06:03:33.547Z,71.70
2018-04-07T06:05:59.800Z,70.90
2018-04-07T06:08:26.760Z,70.60
2018-04-07T06:10:52.952Z,69.80
2018-04-07T06:13:19.117Z,69.60
2018-04-07T06:15:45.355Z,69.90
2018-04-07T06:18:12.285Z,69.70
2018-04-07T06:20:39.235Z,69.50
2018-04-07T06:23:05.394Z,68.70
2018-04-07T06:25:31.555Z,68.40
2018-04-07T06:27:57.760Z,67.60
2018-04-07T06:30:23.928Z,67.50
2018-04-07T06:32:50.120Z,67.10
2018-04-07T06:35:17.013Z,66.80
2018-04-07T06:37:43.168Z,65.80
2018-04-07T06:40:09.347Z,65.40
2018-04-07T06:42:35.692Z,64.90
2018-04-07T06:45:01.941Z,64.70
2018-04-07T06:47:28.134Z,64.20
2018-04-07T06:49:55.116Z,63.20
2018-04-07T06:52:21.304Z,62.40
2018-04-07T06:54:47.462Z,62.40
2018-04-07T06:57:14.565Z,66.10
2018-04-07T06:59:40.728Z,65.20
2018-04-07T07:02:06.937Z,63.50
2018-04-07T07:04:33.156Z,61.60
2018-04-07T07:06:59.477Z,60.20
2018-04-07T07:09:25.727Z,60.60
2018-04-07T07:11:51.937Z,59.90
2018-04-07T07:14:18.100Z,58.80
2018-04-07T07:16:44.257Z,58.20
2018-04-07T07:19:10.435Z,58.00
2018-04-07T07:21:37.351Z,58.10
2018-04-07T07:24:04.259Z,57.70
2018-04-07T07:26:30.475Z,57.00
2018-04-07T07:28:56.631Z,57.60
2018-04-07T07:31:23.620Z,57.70
2018-04-07T07:33:49.781Z,57.10
2018-04-07T07:36:15.956Z,55.80
2018-04-07T07:38:42.144Z,55.10
2018-04-07T07:41:08.311Z,54.40
2018-04-07T07:43:35.287Z,55.20
2018-04-07T07:46:02.948Z,54.80
2018-04-07T07:48:29.082Z,54.10
2018-04-07T07:50:55.282Z,54.00
2018-04-07T07:53:22.158Z,53.70
2018-04-07T07:55:48.331Z,53.00
2018-04-07T07:58:15.237Z,52.90
2018-04-07T08:00:41.484Z,51.70
2018-04-07T08:03:07.624Z,51.70
2018-04-07T08:05:33.787Z,51.50
2018-04-07T08:08:00.283Z,51.90
2018-04-07T08:10:26.463Z,52.00
2018-04-07T08:12:53.376Z,52.00
2018-04-07T08:15:19.564Z,51.30
2018-04-07T08:17:45.728Z,51.30
2018-04-07T08:20:11.916Z,51.10
2018-04-07T08:22:38.843Z,51.70
2018-04-07T08:25:05.032Z,50.90
2018-04-07T08:27:31.267Z,51.00
2018-04-07T08:29:57.423Z,50.00
2018-04-07T08:32:23.679Z,50.30
2018-04-07T08:34:50.607Z,51.00
2018-04-07T08:37:16.792Z,50.30
2018-04-07T08:39:42.966Z,50.70
2018-04-07T08:42:09.170Z,50.30
2018-04-07T08:44:36.076Z,50.80
2018-04-07T08:47:02.257Z,50.10
2018-04-07T08:49:28.430Z,49.60
2018-04-07T08:51:54.607Z,49.90
2018-04-07T08:54:20.780Z,49.30
2018-04-07T08:56:46.948Z,49.60
2018-04-07T08:59:13.092Z,50.50
2018-04-07T09:01:39.249Z,50.40
2018-04-07T09:04:06.188Z,51.30
2018-04-07T09:06:33.067Z,51.20
2018-04-07T09:08:59.299Z,50.60
2018-04-07T09:11:25.479Z,50.20
2018-04-07T09:13:51.660Z,50.50
2018-04-07T09:16:18.007Z,50.20
2018-04-07T09:18:44.176Z,50.20
2018-04-07T09:21:11.069Z,51.00
2018-04-07T09:23:37.226Z,50.40
2018-04-07T09:26:03.420Z,50.60
2018-04-07T09:28:30.355Z,51.20
2018-04-07T09:31:03.333Z,50.80
2018-04-07T09:33:29.486Z,50.50
2018-04-07T09:35:56.407Z,51.60
2018-04-07T09:38:22.568Z,50.90
2018-04-07T09:40:49.490Z,51.40
2018-04-07T09:43:15.647Z,50.60
2018-04-07T09:45:41.805Z,50.30
2018-04-07T09:48:07.974Z,51.20
2018-04-07T09:50:34.152Z,50.80
2018-04-07T09:53:00.295Z,50.40
2018-04-07T09:55:27.232Z,51.60
2018-04-07T09:57:54.158Z,51.80
2018-04-07T10:00:20.341Z,51.20
2018-04-07T10:02:46.535Z,51.20
2018-04-07T10:05:12.723Z,51.40
2018-04-07T10:07:38.872Z,51.40
2018-04-07T10:10:05.804Z,51.10
2018-04-07T10:12:32.009Z,50.30
2018-04-07T10:14:58.936Z,51.90
2018-04-07T10:17:25.120Z,51.10
2018-04-07T10:19:51.303Z,51.00
2018-04-07T10:22:18.209Z,51.90
2018-04-07T10:24:44.388Z,51.00
2018-04-07T10:27:10.572Z,51.10
2018-04-07T10:29:36.775Z,51.10
2018-04-07T10:32:02.973Z,51.40
2018-04-07T10:34:29.882Z,51.70
2018-04-07T10:36:56.052Z,50.40
2018-04-07T10:39:22.216Z,50.10
2018-04-07T10:41:49.158Z,50.30
2018-04-07T10:44:15.317Z,49.20
2018-04-07T10:46:41.511Z,49.50
2018-04-07T10:49:07.672Z,49.40
2018-04-07T10:51:34.568Z,50.10
2018-04-07T10:54:00.745Z,49.20
2018-04-07T10:56:26.952Z,48.80
2018-04-07T10:58:53.872Z,50.10
2018-04-07T11:01:20.056Z,49.10
2018-04-07T11:03:46.216Z,49.40
2018-04-07T11:06:13.133Z,50.70
2018-04-07T11:08:39.280Z,50.00
2018-04-07T11:11:05.514Z,50.00
2018-04-07T11:13:32.458Z,51.30
2018-04-07T11:15:58.639Z,50.60
2018-04-07T11:18:25.547Z,51.50
2018-04-07T11:20:51.692Z,50.60
2018-04-07T11:23:18.616Z,51.50
2018-04-07T11:25:44.823Z,52.60
2018-04-07T11:28:11.000Z,50.90
2018-04-07T11:30:37.158Z,50.70
2018-04-07T11:33:03.326Z,51.60
2018-04-07T11:35:29.508Z,51.10
2018-04-07T11:37:56.426Z,52.60
2018-04-07T11:40:22.620Z,51.80
2018-04-07T11:42:48.819Z,52.30
2018-04-07T11:45:15.020Z,52.50
2018-04-07T11:47:41.170Z,52.40
2018-04-07T11:50:07.360Z,53.10
2018-04-07T11:52:33.534Z,54.10
2018-04-07T11:54:59.711Z,53.60
2018-04-07T11:57:25.907Z,53.90
2018-04-07T11:59:52.091Z,53.70
2018-04-07T12:02:18.287Z,54.20
2018-04-07T12:04:44.421Z,55.30
2018-04-07T12:07:11.335Z,55.20
2018-04-07T12:09:38.281Z,55.10
2018-04-07T12:12:04.467Z,54.60
2018-04-07T12:16:58.623Z,59.90
2018-04-07T12:19:24.796Z,57.50
2018-04-07T12:24:18.931Z,59.50
2018-04-07T12:26:45.113Z,58.20
2018-04-07T12:29:11.340Z,59.30
2018-04-07T12:31:37.504Z,59.70
2018-04-07T12:34:04.413Z,60.60
2018-04-07T12:36:30.584Z,56.90
2018-04-07T12:38:56.736Z,56.40
2018-04-07T12:41:23.676Z,58.10
2018-04-07T12:43:50.559Z,58.10
2018-04-07T12:46:16.720Z,58.00
2018-04-07T12:48:42.904Z,56.80
2018-04-07T12:51:09.107Z,55.30
2018-04-07T12:53:35.240Z,57.00
2018-04-07T12:56:01.427Z,56.80
2018-04-07T12:58:27.587Z,56.50
2018-04-07T13:00:53.776Z,56.50
2018-04-07T13:03:19.949Z,57.20
2018-04-07T13:05:46.140Z,58.10
2018-04-07T13:08:12.368Z,56.00
2018-04-07T13:10:38.554Z,56.20
2018-04-07T13:13:05.532Z,56.60
2018-04-07T13:15:31.743Z,57.70
2018-04-07T13:17:57.904Z,54.60
2018-04-07T13:20:24.961Z,54.90
2018-04-07T13:22:51.861Z,55.20
2018-04-07T13:25:18.060Z,54.20
2018-04-07T13:27:44.958Z,54.90
2018-04-07T13:30:11.112Z,54.10
2018-04-07T13:32:38.036Z,54.50
2018-04-07T13:35:04.212Z,53.70
2018-04-07T13:37:30.424Z,53.40
2018-04-07T13:39:57.365Z,54.30
2018-04-07T13:42:23.520Z,53.40
2018-04-07T13:44:49.677Z,53.30
2018-04-07T13:47:16.461Z,53.10
2018-04-07T13:49:42.640Z,54.00
2018-04-07T13:52:09.528Z,54.70
2018-04-07T13:54:35.721Z,53.60
2018-04-07T13:57:01.909Z,53.70
2018-04-07T13:59:28.072Z,53.70
2018-04-07T14:01:55.019Z,53.40
2018-04-07T14:04:21.275Z,53.80
2018-04-07T14:06:47.391Z,54.30
2018-04-07T14:09:14.304Z,55.20
2018-04-07T14:11:40.489Z,53.80
2018-04-07T14:14:06.844Z,54.30
2018-04-07T14:16:33.734Z,56.70
2018-04-07T14:18:59.920Z,55.70
2018-04-07T14:21:26.837Z,56.60
2018-04-07T14:23:53.000Z,56.00
2018-04-07T14:26:19.884Z,56.70
2018-04-07T14:28:46.041Z,56.20
2018-04-07T14:31:12.239Z,64.00
2018-04-07T14:33:38.417Z,61.10
2018-04-07T14:36:04.580Z,63.00
2018-04-07T14:38:30.799Z,59.30
2018-04-07T14:40:57.776Z,56.20
2018-04-07T14:43:24.680Z,56.40
2018-04-07T14:45:50.828Z,55.70
2018-04-07T14:48:17.850Z,56.60
2018-04-07T14:50:44.013Z,58.00
2018-04-07T14:53:10.176Z,55.70
2018-04-07T14:55:37.059Z,63.80
2018-04-07T14:58:03.207Z,59.90
2018-04-07T15:00:29.476Z,56.10
2018-04-07T15:02:56.432Z,56.40
2018-04-07T15:05:23.416Z,57.30
2018-04-07T15:07:49.619Z,61.00
2018-04-07T15:10:16.515Z,58.90
2018-04-07T15:12:42.659Z,56.20
2018-04-07T15:15:08.845Z,57.10
2018-04-07T15:17:35.757Z,56.40
2018-04-07T15:20:01.919Z,55.70
2018-04-07T15:22:28.853Z,57.70
2018-04-07T15:24:55.092Z,56.90
2018-04-07T15:27:22.020Z,59.10
2018-04-07T15:29:48.196Z,57.60
2018-04-07T15:32:15.089Z,57.30
2018-04-07T15:34:41.282Z,56.50
2018-04-07T15:37:07.452Z,56.50
2018-04-07T15:39:33.608Z,57.60
2018-04-07T15:41:59.772Z,58.70
2018-04-07T15:44:26.687Z,60.90
2018-04-07T15:46:54.348Z,64.40
2018-04-07T15:49:20.575Z,58.90
2018-04-07T15:51:46.750Z,59.80
2018-04-07T15:56:40.854Z,58.10
2018-04-07T15:59:06.974Z,58.60
2018-04-07T16:01:33.896Z,58.50
2018-04-07T16:04:00.069Z,57.50
2018-04-07T16:06:26.980Z,58.90
2018-04-07T16:08:53.152Z,63.30
2018-04-07T16:11:20.265Z,58.80
2018-04-07T16:13:46.484Z,58.20
2018-04-07T16:16:13.496Z,59.90
2018-04-07T16:18:40.414Z,60.20
2018-04-07T16:21:06.691Z,59.30
2018-04-07T16:23:32.917Z,57.80
2018-04-07T16:25:59.833Z,59.20
2018-04-07T16:28:25.991Z,58.50
2018-04-07T16:30:52.168Z,58.50
2018-04-07T16:33:18.382Z,58.70
2018-04-07T16:35:44.545Z,59.10
2018-04-07T16:38:10.739Z,60.60
2018-04-07T16:40:36.946Z,61.70
2018-04-07T16:43:03.096Z,61.90
2018-04-07T16:45:30.148Z,62.00
2018-04-07T16:47:57.067Z,63.50
2018-04-07T16:50:24.213Z,63.90
2018-04-07T16:52:50.383Z,62.70
2018-04-07T16:55:16.536Z,63.20
2018-04-07T16:57:43.443Z,64.20
2018-04-07T17:00:09.625Z,63.80
2018-04-07T17:02:35.815Z,64.40
2018-04-07T17:05:02.814Z,65.20
2018-04-07T17:07:28.988Z,64.10
2018-04-07T17:09:55.145Z,65.10
2018-04-07T17:12:21.364Z,64.40
2018-04-07T17:14:47.520Z,64.80
2018-04-07T17:17:13.720Z,64.30
2018-04-07T17:19:40.643Z,66.40
2018-04-07T17:22:06.799Z,65.00
2018-04-07T17:24:32.963Z,65.10
2018-04-07T17:26:59.902Z,65.50
2018-04-07T17:29:26.076Z,64.90
2018-04-07T17:31:52.274Z,65.80
2018-04-07T17:34:18.494Z,65.50
2018-04-07T17:36:44.676Z,62.50
2018-04-07T17:39:10.869Z,64.10
2018-04-07T17:41:37.024Z,65.90
2018-04-07T17:44:03.945Z,63.60
2018-04-07T17:46:30.104Z,62.90
2018-04-07T17:49:05.991Z,64.00
2018-04-07T17:51:22.560Z,65.20
2018-04-07T17:53:48.717Z,64.00
2018-04-07T17:56:14.891Z,62.70
2018-04-07T17:58:41.043Z,63.30
2018-04-07T18:01:07.224Z,64.30
2018-04-07T18:03:33.411Z,64.60
2018-04-07T18:05:59.568Z,64.10
2018-04-07T18:08:25.744Z,63.00
2018-04-07T18:10:51.928Z,60.70
2018-04-07T18:13:18.119Z,62.20
2018-04-07T18:15:44.284Z,62.20
2018-04-07T18:18:10.477Z,60.20
2018-04-07T18:20:36.669Z,59.60
2018-04-07T18:23:02.875Z,62.30
2018-04-07T18:25:29.813Z,61.30
2018-04-07T18:27:58.372Z,59.80
2018-04-07T18:30:28.312Z,59.40
2018-04-07T18:32:58.949Z,60.50
2018-04-07T18:35:26.753Z,61.70
2018-04-07T18:37:52.942Z,61.30
2018-04-07T18:40:19.132Z,62.00
2018-04-07T18:42:46.031Z,63.20
2018-04-07T18:45:14.887Z,62.70
2018-04-07T18:47:41.947Z,62.80
2018-04-07T18:50:08.854Z,63.80
2018-04-07T18:52:35.036Z,62.80
2018-04-07T18:55:01.215Z,61.80
2018-04-07T18:57:27.392Z,60.00
2018-04-07T18:59:53.598Z,60.40
2018-04-07T19:02:19.804Z,61.50
2018-04-07T19:04:45.965Z,66.20
2018-04-07T19:07:12.121Z,61.00
2018-04-07T19:09:38.334Z,61.50
2018-04-07T19:12:04.520Z,61.80
2018-04-07T19:14:30.692Z,59.60
2018-04-07T19:16:56.863Z,59.80
2018-04-07T19:19:23.071Z,59.90
2018-04-07T19:21:49.258Z,60.80
2018-04-07T19:24:15.490Z,61.20
2018-04-07T19:26:41.671Z,61.70
2018-04-07T19:29:07.836Z,62.10
2018-04-07T19:31:34.023Z,62.10
2018-04-07T19:34:00.204Z,62.00
2018-04-07T19:36:26.412Z,62.50
2018-04-07T19:38:53.361Z,64.20
2018-04-07T19:41:20.298Z,62.30
2018-04-07T19:43:46.466Z,62.10
2018-04-07T19:46:13.426Z,64.40
2018-04-07T19:48:39.588Z,66.10
2018-04-07T19:51:05.732Z,62.60
2018-04-07T19:53:34.860Z,62.20
2018-04-07T19:56:04.063Z,62.40
2018-04-07T19:58:33.475Z,62.90
2018-04-07T20:01:00.919Z,64.10
2018-04-07T20:03:27.068Z,63.10
2018-04-07T20:05:55.041Z,60.60
2018-04-07T20:08:21.877Z,60.60
2018-04-07T20:10:48.068Z,60.90
2018-04-07T20:13:14.259Z,62.20
2018-04-07T20:15:40.406Z,60.30
2018-04-07T20:18:07.311Z,60.00
2018-04-07T20:20:34.287Z,60.80
2018-04-07T20:23:00.491Z,60.00
2018-04-07T20:25:26.675Z,60.20
2018-04-07T20:27:52.868Z,60.30
2018-04-07T20:30:19.045Z,60.60
2018-04-07T20:32:45.921Z,62.10
2018-04-07T20:35:12.108Z,65.20
2018-04-07T20:37:38.280Z,64.80
2018-04-07T20:40:04.487Z,63.00
2018-04-07T20:42:31.388Z,63.40
2018-04-07T20:44:57.549Z,62.40
2018-04-07T20:47:23.715Z,63.40
2018-04-07T20:49:50.637Z,65.30
2018-04-07T20:52:16.811Z,65.10
2018-04-07T20:54:43.005Z,65.00
2018-04-07T20:57:09.951Z,66.80
2018-04-07T20:59:36.113Z,65.90
2018-04-07T21:02:02.989Z,65.00
2018-04-07T21:04:29.177Z,63.60
2018-04-07T21:06:56.119Z,64.90
2018-04-07T21:09:22.324Z,63.90
2018-04-07T21:11:48.507Z,64.10
2018-04-07T21:14:14.675Z,64.30
2018-04-07T21:16:42.397Z,65.30
2018-04-07T21:19:08.569Z,64.30
2018-04-07T21:21:34.973Z,63.90
2018-04-07T21:24:01.912Z,66.10
2018-04-07T21:26:28.864Z,65.10
2018-04-07T21:28:55.061Z,64.10
2018-04-07T21:31:21.226Z,64.10
2018-04-07T21:33:47.381Z,63.70
2018-04-07T21:36:13.612Z,63.90
2018-04-07T21:38:40.528Z,65.10
2018-04-07T21:41:06.692Z,64.10
2018-04-07T21:43:32.839Z,64.40
2018-04-07T21:45:59.804Z,65.90
2018-04-07T21:48:25.960Z,64.80
2018-04-07T21:50:53.867Z,65.40
2018-04-07T21:53:20.070Z,64.60
2018-04-07T21:55:47.224Z,65.80
2018-04-07T21:58:13.368Z,64.90
2018-04-07T22:00:39.539Z,65.20
2018-04-07T22:03:06.447Z,66.20
2018-04-07T22:05:32.603Z,64.90
2018-04-07T22:07:59.511Z,66.20
2018-04-07T22:10:25.685Z,65.20
2018-04-07T22:12:51.907Z,65.50
2018-04-07T22:15:18.072Z,65.60
2018-04-07T22:17:44.278Z,65.40
2018-04-07T22:20:10.480Z,65.50
2018-04-07T22:22:36.725Z,66.10
2018-04-07T22:25:02.968Z,65.60
2018-04-07T22:27:29.896Z,66.70
2018-04-07T22:29:56.076Z,65.80
2018-04-07T22:32:22.263Z,66.00
2018-04-07T22:34:48.464Z,66.20
2018-04-07T22:37:15.398Z,67.90
2018-04-07T22:39:41.555Z,67.00
2018-04-07T22:42:07.720Z,66.20
2018-04-07T22:44:33.881Z,66.40
2018-04-07T22:47:00.052Z,66.50
2018-04-07T22:49:26.940Z,67.90
2018-04-07T22:51:53.904Z,68.10
2018-04-07T22:54:20.072Z,68.00
2018-04-07T22:56:46.222Z,67.40
2018-04-07T22:59:12.438Z,67.80
2018-04-07T23:01:39.369Z,68.80
2018-04-07T23:04:05.528Z,67.80
2018-04-07T23:06:32.452Z,69.00
2018-04-07T23:08:59.395Z,69.50
2018-04-07T23:11:25.576Z,68.50
2018-04-07T23:13:52.500Z,69.60
2018-04-07T23:16:19.513Z,69.60
2018-04-07T23:18:45.729Z,68.20
2018-04-07T23:21:11.879Z,68.50
2018-04-07T23:23:38.079Z,69.00
2018-04-07T23:26:04.291Z,69.80
2018-04-07T23:28:31.229Z,68.40
2018-04-07T23:30:57.384Z,67.40
2018-04-07T23:33:24.313Z,68.50
2018-04-07T23:35:51.231Z,69.00
2018-04-07T23:38:17.412Z,67.50
2018-04-07T23:40:43.600Z,67.80
2018-04-07T23:43:09.791Z,67.40
2018-04-07T23:45:36.720Z,68.60
2018-04-07T23:48:02.920Z,67.70
2018-04-07T23:50:29.068Z,68.90
2018-04-07T23:52:56.720Z,70.00
2018-04-07T23:55:22.921Z,69.60
2018-04-07T23:57:49.124Z,69.80
